sensor_id;sensor_type;location;lat;lon;timestamp;P1;durP1;ratioP1;P2;durP2;ratioP2
8895;SDS011;4484;48.928;10.066;2023-06-22T00:00:12;4.70;;;4.30;;
8895;SDS011;4484;48.928;10.066;2023-06-22T00:02:39;5.43;;;3.83;;
8895;SDS011;4484;48.928;10.066;2023-06-22T00:05:06;5.53;;;3.73;;
8895;SDS011;4484;48.928;10.066;2023-06-22T00:07:33;4.77;;;4.10;;
8895;SDS011;4484;48.928;10.066;2023-06-22T00:10:00;4.60;;;4.10;;
8895;SDS011;4484;48.928;10.066;2023-06-22T00:12:27;3.87;;;3.43;;
8895;SDS011;4484;48.928;10.066;2023-06-22T00:14:54;5.00;;;4.50;;
8895;SDS011;4484;48.928;10.066;2023-06-22T00:17:21;6.67;;;5.27;;
8895;SDS011;4484;48.928;10.066;2023-06-22T00:19:47;5.10;;;4.13;;
8895;SDS011;4484;48.928;10.066;2023-06-22T00:22:19;4.17;;;3.77;;
8895;SDS011;4484;48.928;10.066;2023-06-22T00:24:55;5.33;;;4.83;;
8895;SDS011;4484;48.928;10.066;2023-06-22T00:27:22;7.33;;;4.97;;
8895;SDS011;4484;48.928;10.066;2023-06-22T00:29:49;6.53;;;5.23;;
8895;SDS011;4484;48.928;10.066;2023-06-22T00:32:16;6.83;;;5.70;;
8895;SDS011;4484;48.928;10.066;2023-06-22T00:34:46;8.67;;;5.93;;
8895;SDS011;4484;48.928;10.066;2023-06-22T00:37:13;8.10;;;6.33;;
8895;SDS011;4484;48.928;10.066;2023-06-22T00:39:40;9.33;;;7.10;;
8895;SDS011;4484;48.928;10.066;2023-06-22T00:42:07;9.87;;;7.37;;
8895;SDS011;4484;48.928;10.066;2023-06-22T00:44:34;9.63;;;7.27;;
8895;SDS011;4484;48.928;10.066;2023-06-22T00:47:02;9.70;;;6.97;;
8895;SDS011;4484;48.928;10.066;2023-06-22T00:49:29;11.87;;;8.33;;
8895;SDS011;4484;48.928;10.066;2023-06-22T00:51:57;9.47;;;8.23;;
8895;SDS011;4484;48.928;10.066;2023-06-22T00:54:25;11.57;;;8.57;;
8895;SDS011;4484;48.928;10.066;2023-06-22T00:56:54;9.80;;;8.73;;
8895;SDS011;4484;48.928;10.066;2023-06-22T00:59:25;9.63;;;8.40;;
8895;SDS011;4484;48.928;10.066;2023-06-22T01:01:53;13.83;;;10.97;;
8895;SDS011;4484;48.928;10.066;2023-06-22T01:04:25;12.87;;;9.77;;
8895;SDS011;4484;48.928;10.066;2023-06-22T01:12:42;13.17;;;10.33;;
8895;SDS011;4484;48.928;10.066;2023-06-22T01:18:06;13.47;;;10.47;;
8895;SDS011;4484;48.928;10.066;2023-06-22T01:20:35;13.60;;;9.53;;
8895;SDS011;4484;48.928;10.066;2023-06-22T01:28:12;11.97;;;9.30;;
8895;SDS011;4484;48.928;10.066;2023-06-22T01:30:49;12.37;;;8.93;;
8895;SDS011;4484;48.928;10.066;2023-06-22T01:33:30;8.73;;;7.30;;
8895;SDS011;4484;48.928;10.066;2023-06-22T01:36:03;7.83;;;6.80;;
8895;SDS011;4484;48.928;10.066;2023-06-22T01:38:32;8.37;;;6.20;;
8895;SDS011;4484;48.928;10.066;2023-06-22T01:41:00;7.27;;;5.67;;
8895;SDS011;4484;48.928;10.066;2023-06-22T01:43:27;5.63;;;4.73;;
8895;SDS011;4484;48.928;10.066;2023-06-22T01:45:56;5.80;;;4.60;;
8895;SDS011;4484;48.928;10.066;2023-06-22T01:48:24;5.67;;;4.60;;
8895;SDS011;4484;48.928;10.066;2023-06-22T01:50:53;5.80;;;4.67;;
8895;SDS011;4484;48.928;10.066;2023-06-22T01:53:21;4.83;;;4.43;;
8895;SDS011;4484;48.928;10.066;2023-06-22T01:55:50;4.60;;;4.07;;
8895;SDS011;4484;48.928;10.066;2023-06-22T01:58:18;5.67;;;4.60;;
8895;SDS011;4484;48.928;10.066;2023-06-22T02:00:53;7.20;;;6.23;;
8895;SDS011;4484;48.928;10.066;2023-06-22T02:03:31;8.10;;;7.10;;
8895;SDS011;4484;48.928;10.066;2023-06-22T02:06:10;6.07;;;5.43;;
8895;SDS011;4484;48.928;10.066;2023-06-22T02:08:46;6.07;;;5.13;;
8895;SDS011;4484;48.928;10.066;2023-06-22T02:11:15;6.00;;;5.07;;
8895;SDS011;4484;48.928;10.066;2023-06-22T02:13:45;6.23;;;4.57;;
8895;SDS011;4484;48.928;10.066;2023-06-22T02:16:13;7.00;;;5.37;;
8895;SDS011;4484;48.928;10.066;2023-06-22T02:18:46;6.60;;;5.90;;
8895;SDS011;4484;48.928;10.066;2023-06-22T02:21:17;9.73;;;8.07;;
8895;SDS011;4484;48.928;10.066;2023-06-22T02:23:45;8.00;;;7.10;;
8895;SDS011;4484;48.928;10.066;2023-06-22T02:26:12;7.87;;;6.50;;
8895;SDS011;4484;48.928;10.066;2023-06-22T02:28:40;7.77;;;6.20;;
8895;SDS011;4484;48.928;10.066;2023-06-22T02:31:08;6.30;;;5.63;;
8895;SDS011;4484;48.928;10.066;2023-06-22T02:33:34;13.13;;;9.83;;
8895;SDS011;4484;48.928;10.066;2023-06-22T02:36:02;8.13;;;7.33;;
8895;SDS011;4484;48.928;10.066;2023-06-22T02:38:31;10.30;;;7.47;;
8895;SDS011;4484;48.928;10.066;2023-06-22T02:41:02;10.77;;;7.17;;
8895;SDS011;4484;48.928;10.066;2023-06-22T02:43:29;8.43;;;6.83;;
8895;SDS011;4484;48.928;10.066;2023-06-22T02:45:56;9.17;;;7.47;;
8895;SDS011;4484;48.928;10.066;2023-06-22T02:48:23;7.70;;;6.37;;
8895;SDS011;4484;48.928;10.066;2023-06-22T02:50:51;7.47;;;5.90;;
8895;SDS011;4484;48.928;10.066;2023-06-22T02:53:19;7.83;;;6.93;;
8895;SDS011;4484;48.928;10.066;2023-06-22T02:55:46;6.93;;;6.17;;
8895;SDS011;4484;48.928;10.066;2023-06-22T02:58:13;10.23;;;7.93;;
8895;SDS011;4484;48.928;10.066;2023-06-22T03:00:40;7.83;;;7.03;;
8895;SDS011;4484;48.928;10.066;2023-06-22T03:03:07;8.40;;;7.03;;
8895;SDS011;4484;48.928;10.066;2023-06-22T03:05:34;9.17;;;7.33;;
8895;SDS011;4484;48.928;10.066;2023-06-22T03:08:02;7.97;;;7.17;;
8895;SDS011;4484;48.928;10.066;2023-06-22T03:10:32;8.23;;;6.70;;
8895;SDS011;4484;48.928;10.066;2023-06-22T03:12:59;7.20;;;6.43;;
8895;SDS011;4484;48.928;10.066;2023-06-22T03:15:26;7.97;;;7.07;;
8895;SDS011;4484;48.928;10.066;2023-06-22T03:17:56;8.73;;;6.80;;
8895;SDS011;4484;48.928;10.066;2023-06-22T03:20:23;7.17;;;6.43;;
8895;SDS011;4484;48.928;10.066;2023-06-22T03:22:51;11.07;;;5.87;;
8895;SDS011;4484;48.928;10.066;2023-06-22T03:25:19;7.17;;;6.13;;
8895;SDS011;4484;48.928;10.066;2023-06-22T03:27:48;5.70;;;5.10;;
8895;SDS011;4484;48.928;10.066;2023-06-22T03:30:15;6.13;;;5.07;;
8895;SDS011;4484;48.928;10.066;2023-06-22T03:32:41;6.40;;;5.10;;
8895;SDS011;4484;48.928;10.066;2023-06-22T03:35:09;6.13;;;5.53;;
8895;SDS011;4484;48.928;10.066;2023-06-22T03:37:39;8.30;;;6.83;;
8895;SDS011;4484;48.928;10.066;2023-06-22T03:40:06;7.57;;;6.40;;
8895;SDS011;4484;48.928;10.066;2023-06-22T03:42:34;10.63;;;7.70;;
8895;SDS011;4484;48.928;10.066;2023-06-22T03:45:04;8.40;;;6.10;;
8895;SDS011;4484;48.928;10.066;2023-06-22T03:47:32;7.10;;;6.30;;
8895;SDS011;4484;48.928;10.066;2023-06-22T03:49:59;10.17;;;7.00;;
8895;SDS011;4484;48.928;10.066;2023-06-22T03:52:26;11.30;;;7.93;;
8895;SDS011;4484;48.928;10.066;2023-06-22T03:54:53;9.53;;;8.10;;
8895;SDS011;4484;48.928;10.066;2023-06-22T03:57:20;10.60;;;7.87;;
8895;SDS011;4484;48.928;10.066;2023-06-22T03:59:47;7.63;;;6.83;;
8895;SDS011;4484;48.928;10.066;2023-06-22T04:02:14;8.23;;;7.13;;
8895;SDS011;4484;48.928;10.066;2023-06-22T04:04:41;7.40;;;6.53;;
8895;SDS011;4484;48.928;10.066;2023-06-22T04:07:08;9.87;;;8.13;;
8895;SDS011;4484;48.928;10.066;2023-06-22T04:09:35;8.80;;;7.77;;
8895;SDS011;4484;48.928;10.066;2023-06-22T04:12:02;8.33;;;7.33;;
8895;SDS011;4484;48.928;10.066;2023-06-22T04:14:29;10.80;;;7.37;;
8895;SDS011;4484;48.928;10.066;2023-06-22T04:16:57;12.23;;;7.53;;
8895;SDS011;4484;48.928;10.066;2023-06-22T04:19:24;14.03;;;9.30;;
8895;SDS011;4484;48.928;10.066;2023-06-22T04:21:51;13.37;;;9.10;;
8895;SDS011;4484;48.928;10.066;2023-06-22T04:24:18;11.73;;;9.40;;
8895;SDS011;4484;48.928;10.066;2023-06-22T04:26:45;11.63;;;8.23;;
8895;SDS011;4484;48.928;10.066;2023-06-22T04:29:13;7.97;;;7.20;;
8895;SDS011;4484;48.928;10.066;2023-06-22T04:31:40;10.23;;;9.03;;
8895;SDS011;4484;48.928;10.066;2023-06-22T04:34:07;11.73;;;8.63;;
8895;SDS011;4484;48.928;10.066;2023-06-22T04:36:35;12.53;;;9.40;;
8895;SDS011;4484;48.928;10.066;2023-06-22T04:39:08;14.80;;;10.03;;
8895;SDS011;4484;48.928;10.066;2023-06-22T04:41:36;18.43;;;11.80;;
8895;SDS011;4484;48.928;10.066;2023-06-22T04:44:10;9.87;;;8.30;;
8895;SDS011;4484;48.928;10.066;2023-06-22T04:46:40;13.40;;;10.47;;
8895;SDS011;4484;48.928;10.066;2023-06-22T04:49:07;12.50;;;9.70;;
8895;SDS011;4484;48.928;10.066;2023-06-22T04:51:39;9.67;;;8.37;;
8895;SDS011;4484;48.928;10.066;2023-06-22T04:54:08;13.20;;;9.83;;
8895;SDS011;4484;48.928;10.066;2023-06-22T04:56:35;12.73;;;10.57;;
8895;SDS011;4484;48.928;10.066;2023-06-22T04:59:03;14.03;;;10.90;;
8895;SDS011;4484;48.928;10.066;2023-06-22T05:01:30;15.30;;;11.50;;
8895;SDS011;4484;48.928;10.066;2023-06-22T05:04:01;12.37;;;10.30;;
8895;SDS011;4484;48.928;10.066;2023-06-22T05:06:29;12.97;;;11.60;;
8895;SDS011;4484;48.928;10.066;2023-06-22T05:08:56;11.80;;;9.70;;
8895;SDS011;4484;48.928;10.066;2023-06-22T05:11:27;14.43;;;10.60;;
8895;SDS011;4484;48.928;10.066;2023-06-22T05:13:54;13.73;;;10.50;;
8895;SDS011;4484;48.928;10.066;2023-06-22T05:16:22;17.70;;;10.97;;
8895;SDS011;4484;48.928;10.066;2023-06-22T05:18:52;17.57;;;9.87;;
8895;SDS011;4484;48.928;10.066;2023-06-22T05:21:22;13.87;;;10.37;;
8895;SDS011;4484;48.928;10.066;2023-06-22T05:23:51;13.23;;;10.77;;
8895;SDS011;4484;48.928;10.066;2023-06-22T05:26:21;12.83;;;11.20;;
8895;SDS011;4484;48.928;10.066;2023-06-22T05:28:48;13.83;;;10.03;;
8895;SDS011;4484;48.928;10.066;2023-06-22T05:31:15;15.30;;;10.33;;
8895;SDS011;4484;48.928;10.066;2023-06-22T05:33:43;15.70;;;10.20;;
8895;SDS011;4484;48.928;10.066;2023-06-22T05:36:10;13.63;;;9.30;;
8895;SDS011;4484;48.928;10.066;2023-06-22T05:38:39;12.27;;;9.60;;
8895;SDS011;4484;48.928;10.066;2023-06-22T05:41:06;13.23;;;9.00;;
8895;SDS011;4484;48.928;10.066;2023-06-22T05:43:34;13.37;;;9.33;;
8895;SDS011;4484;48.928;10.066;2023-06-22T05:46:01;14.70;;;9.60;;
8895;SDS011;4484;48.928;10.066;2023-06-22T05:48:28;11.07;;;9.10;;
8895;SDS011;4484;48.928;10.066;2023-06-22T05:50:56;12.50;;;8.60;;
8895;SDS011;4484;48.928;10.066;2023-06-22T05:53:23;17.33;;;9.17;;
8895;SDS011;4484;48.928;10.066;2023-06-22T05:55:50;15.27;;;8.90;;
8895;SDS011;4484;48.928;10.066;2023-06-22T05:58:17;10.67;;;8.43;;
8895;SDS011;4484;48.928;10.066;2023-06-22T06:00:44;11.10;;;7.70;;
8895;SDS011;4484;48.928;10.066;2023-06-22T06:03:11;13.30;;;7.67;;
8895;SDS011;4484;48.928;10.066;2023-06-22T06:05:40;9.00;;;7.23;;
8895;SDS011;4484;48.928;10.066;2023-06-22T06:08:07;10.33;;;7.20;;
8895;SDS011;4484;48.928;10.066;2023-06-22T06:10:34;10.33;;;7.43;;
8895;SDS011;4484;48.928;10.066;2023-06-22T06:13:01;8.27;;;6.83;;
8895;SDS011;4484;48.928;10.066;2023-06-22T06:15:31;9.77;;;7.57;;
8895;SDS011;4484;48.928;10.066;2023-06-22T06:17:59;11.40;;;6.73;;
8895;SDS011;4484;48.928;10.066;2023-06-22T06:20:26;9.90;;;7.23;;
8895;SDS011;4484;48.928;10.066;2023-06-22T06:22:57;8.80;;;6.70;;
8895;SDS011;4484;48.928;10.066;2023-06-22T06:25:24;11.17;;;7.43;;
8895;SDS011;4484;48.928;10.066;2023-06-22T06:27:53;10.73;;;6.80;;
8895;SDS011;4484;48.928;10.066;2023-06-22T06:30:21;11.27;;;6.93;;
8895;SDS011;4484;48.928;10.066;2023-06-22T06:32:49;9.57;;;6.20;;
8895;SDS011;4484;48.928;10.066;2023-06-22T06:35:16;9.17;;;6.37;;
8895;SDS011;4484;48.928;10.066;2023-06-22T06:37:44;7.07;;;6.37;;
8895;SDS011;4484;48.928;10.066;2023-06-22T06:40:12;13.20;;;6.93;;
8895;SDS011;4484;48.928;10.066;2023-06-22T06:42:42;9.55;;;6.75;;
8895;SDS011;4484;48.928;10.066;2023-06-22T06:45:12;8.90;;;7.00;;
8895;SDS011;4484;48.928;10.066;2023-06-22T06:47:41;9.33;;;5.70;;
8895;SDS011;4484;48.928;10.066;2023-06-22T06:50:08;8.57;;;6.35;;
8895;SDS011;4484;48.928;10.066;2023-06-22T06:52:37;8.60;;;6.70;;
8895;SDS011;4484;48.928;10.066;2023-06-22T06:55:05;7.82;;;5.32;;
8895;SDS011;4484;48.928;10.066;2023-06-22T06:57:38;10.35;;;5.82;;
8895;SDS011;4484;48.928;10.066;2023-06-22T07:00:09;9.63;;;5.93;;
8895;SDS011;4484;48.928;10.066;2023-06-22T07:02:39;9.38;;;5.68;;
8895;SDS011;4484;48.928;10.066;2023-06-22T07:05:08;8.75;;;5.93;;
8895;SDS011;4484;48.928;10.066;2023-06-22T07:07:35;8.23;;;5.13;;
8895;SDS011;4484;48.928;10.066;2023-06-22T07:10:04;8.98;;;4.70;;
8895;SDS011;4484;48.928;10.066;2023-06-22T07:12:32;7.22;;;5.55;;
8895;SDS011;4484;48.928;10.066;2023-06-22T07:15:03;6.78;;;4.40;;
8895;SDS011;4484;48.928;10.066;2023-06-22T07:17:32;8.43;;;4.70;;
8895;SDS011;4484;48.928;10.066;2023-06-22T07:19:59;5.75;;;4.40;;
8895;SDS011;4484;48.928;10.066;2023-06-22T07:22:26;6.40;;;4.57;;
8895;SDS011;4484;48.928;10.066;2023-06-22T07:24:53;6.85;;;4.43;;
8895;SDS011;4484;48.928;10.066;2023-06-22T07:27:19;9.10;;;4.65;;
8895;SDS011;4484;48.928;10.066;2023-06-22T07:29:47;6.70;;;4.63;;
8895;SDS011;4484;48.928;10.066;2023-06-22T07:32:14;8.05;;;4.22;;
8895;SDS011;4484;48.928;10.066;2023-06-22T07:34:41;7.90;;;4.57;;
8895;SDS011;4484;48.928;10.066;2023-06-22T07:37:08;8.98;;;4.65;;
8895;SDS011;4484;48.928;10.066;2023-06-22T07:39:35;4.75;;;3.70;;
8895;SDS011;4484;48.928;10.066;2023-06-22T07:42:04;6.97;;;3.92;;
8895;SDS011;4484;48.928;10.066;2023-06-22T07:44:31;7.88;;;3.25;;
8895;SDS011;4484;48.928;10.066;2023-06-22T07:46:58;9.70;;;3.75;;
8895;SDS011;4484;48.928;10.066;2023-06-22T07:49:24;6.57;;;3.67;;
8895;SDS011;4484;48.928;10.066;2023-06-22T07:51:51;7.90;;;3.85;;
8895;SDS011;4484;48.928;10.066;2023-06-22T07:54:18;5.60;;;3.25;;
8895;SDS011;4484;48.928;10.066;2023-06-22T07:56:46;5.05;;;3.63;;
8895;SDS011;4484;48.928;10.066;2023-06-22T07:59:13;6.28;;;3.22;;
8895;SDS011;4484;48.928;10.066;2023-06-22T08:01:40;5.80;;;3.28;;
8895;SDS011;4484;48.928;10.066;2023-06-22T08:04:07;6.70;;;3.65;;
8895;SDS011;4484;48.928;10.066;2023-06-22T08:06:35;6.18;;;3.40;;
8895;SDS011;4484;48.928;10.066;2023-06-22T08:09:02;6.25;;;3.53;;
8895;SDS011;4484;48.928;10.066;2023-06-22T08:11:29;6.43;;;3.65;;
8895;SDS011;4484;48.928;10.066;2023-06-22T08:13:56;6.97;;;3.25;;
8895;SDS011;4484;48.928;10.066;2023-06-22T08:16:25;7.90;;;3.85;;
8895;SDS011;4484;48.928;10.066;2023-06-22T08:18:52;4.93;;;2.90;;
8895;SDS011;4484;48.928;10.066;2023-06-22T08:21:19;7.85;;;3.22;;
8895;SDS011;4484;48.928;10.066;2023-06-22T08:23:45;9.07;;;3.90;;
8895;SDS011;4484;48.928;10.066;2023-06-22T08:26:13;11.05;;;3.67;;
8895;SDS011;4484;48.928;10.066;2023-06-22T08:28:41;5.93;;;3.55;;
8895;SDS011;4484;48.928;10.066;2023-06-22T08:31:08;8.00;;;3.80;;
8895;SDS011;4484;48.928;10.066;2023-06-22T08:33:35;5.63;;;3.25;;
8895;SDS011;4484;48.928;10.066;2023-06-22T08:36:02;9.52;;;3.60;;
8895;SDS011;4484;48.928;10.066;2023-06-22T08:38:29;7.80;;;3.60;;
8895;SDS011;4484;48.928;10.066;2023-06-22T08:40:56;8.27;;;3.70;;
8895;SDS011;4484;48.928;10.066;2023-06-22T08:43:23;6.32;;;3.55;;
8895;SDS011;4484;48.928;10.066;2023-06-22T08:45:50;10.13;;;3.85;;
8895;SDS011;4484;48.928;10.066;2023-06-22T08:48:17;13.25;;;3.85;;
8895;SDS011;4484;48.928;10.066;2023-06-22T08:50:43;7.50;;;3.08;;
8895;SDS011;4484;48.928;10.066;2023-06-22T08:53:10;11.48;;;3.70;;
8895;SDS011;4484;48.928;10.066;2023-06-22T08:55:37;12.13;;;3.65;;
8895;SDS011;4484;48.928;10.066;2023-06-22T08:58:04;5.65;;;3.25;;
8895;SDS011;4484;48.928;10.066;2023-06-22T09:00:31;6.93;;;4.15;;
8895;SDS011;4484;48.928;10.066;2023-06-22T09:03:01;8.73;;;4.10;;
8895;SDS011;4484;48.928;10.066;2023-06-22T09:05:28;10.63;;;3.90;;
8895;SDS011;4484;48.928;10.066;2023-06-22T09:07:56;10.70;;;3.97;;
8895;SDS011;4484;48.928;10.066;2023-06-22T09:10:25;10.30;;;4.28;;
8895;SDS011;4484;48.928;10.066;2023-06-22T09:12:53;10.30;;;4.20;;
8895;SDS011;4484;48.928;10.066;2023-06-22T09:15:20;10.48;;;4.15;;
8895;SDS011;4484;48.928;10.066;2023-06-22T09:17:47;7.13;;;3.88;;
8895;SDS011;4484;48.928;10.066;2023-06-22T09:20:14;11.02;;;4.30;;
8895;SDS011;4484;48.928;10.066;2023-06-22T09:22:42;7.47;;;3.90;;
8895;SDS011;4484;48.928;10.066;2023-06-22T09:25:09;9.65;;;3.90;;
8895;SDS011;4484;48.928;10.066;2023-06-22T09:27:36;9.50;;;3.83;;
8895;SDS011;4484;48.928;10.066;2023-06-22T09:30:03;8.02;;;3.78;;
8895;SDS011;4484;48.928;10.066;2023-06-22T09:32:30;11.57;;;4.35;;
8895;SDS011;4484;48.928;10.066;2023-06-22T09:34:57;10.70;;;4.47;;
8895;SDS011;4484;48.928;10.066;2023-06-22T09:37:24;6.80;;;4.13;;
8895;SDS011;4484;48.928;10.066;2023-06-22T09:39:51;9.93;;;3.95;;
8895;SDS011;4484;48.928;10.066;2023-06-22T09:42:18;8.45;;;3.80;;
8895;SDS011;4484;48.928;10.066;2023-06-22T09:44:45;9.73;;;3.60;;
8895;SDS011;4484;48.928;10.066;2023-06-22T09:47:12;8.95;;;4.18;;
8895;SDS011;4484;48.928;10.066;2023-06-22T09:49:39;12.63;;;4.93;;
8895;SDS011;4484;48.928;10.066;2023-06-22T09:52:09;8.05;;;4.00;;
8895;SDS011;4484;48.928;10.066;2023-06-22T09:54:37;15.25;;;5.55;;
8895;SDS011;4484;48.928;10.066;2023-06-22T09:57:04;14.32;;;4.70;;
8895;SDS011;4484;48.928;10.066;2023-06-22T09:59:31;8.15;;;4.35;;
8895;SDS011;4484;48.928;10.066;2023-06-22T10:01:58;13.38;;;4.85;;
8895;SDS011;4484;48.928;10.066;2023-06-22T10:04:25;8.15;;;3.63;;
8895;SDS011;4484;48.928;10.066;2023-06-22T10:06:53;6.65;;;3.72;;
8895;SDS011;4484;48.928;10.066;2023-06-22T10:09:20;10.13;;;3.88;;
8895;SDS011;4484;48.928;10.066;2023-06-22T10:11:47;12.57;;;4.85;;
8895;SDS011;4484;48.928;10.066;2023-06-22T10:14:14;10.45;;;3.92;;
8895;SDS011;4484;48.928;10.066;2023-06-22T10:16:41;9.75;;;4.53;;
8895;SDS011;4484;48.928;10.066;2023-06-22T10:19:08;15.10;;;4.38;;
8895;SDS011;4484;48.928;10.066;2023-06-22T10:21:35;9.73;;;4.63;;
8895;SDS011;4484;48.928;10.066;2023-06-22T10:24:02;7.50;;;4.40;;
8895;SDS011;4484;48.928;10.066;2023-06-22T10:26:33;9.75;;;4.05;;
8895;SDS011;4484;48.928;10.066;2023-06-22T10:29:00;12.45;;;4.35;;
8895;SDS011;4484;48.928;10.066;2023-06-22T10:31:41;12.35;;;4.70;;
8895;SDS011;4484;48.928;10.066;2023-06-22T10:34:08;13.25;;;4.22;;
8895;SDS011;4484;48.928;10.066;2023-06-22T10:36:35;13.07;;;4.80;;
8895;SDS011;4484;48.928;10.066;2023-06-22T10:39:02;12.18;;;4.50;;
8895;SDS011;4484;48.928;10.066;2023-06-22T10:41:29;8.55;;;4.72;;
8895;SDS011;4484;48.928;10.066;2023-06-22T10:43:57;14.00;;;4.65;;
8895;SDS011;4484;48.928;10.066;2023-06-22T10:46:24;12.38;;;4.57;;
8895;SDS011;4484;48.928;10.066;2023-06-22T10:48:54;11.50;;;4.70;;
8895;SDS011;4484;48.928;10.066;2023-06-22T10:51:23;14.75;;;4.95;;
8895;SDS011;4484;48.928;10.066;2023-06-22T10:53:50;11.30;;;5.00;;
8895;SDS011;4484;48.928;10.066;2023-06-22T10:56:17;10.50;;;4.47;;
8895;SDS011;4484;48.928;10.066;2023-06-22T10:58:45;8.38;;;4.68;;
8895;SDS011;4484;48.928;10.066;2023-06-22T11:01:12;8.52;;;4.57;;
8895;SDS011;4484;48.928;10.066;2023-06-22T11:03:59;13.30;;;4.60;;
8895;SDS011;4484;48.928;10.066;2023-06-22T11:06:26;9.38;;;4.35;;
8895;SDS011;4484;48.928;10.066;2023-06-22T11:08:53;7.63;;;4.40;;
8895;SDS011;4484;48.928;10.066;2023-06-22T11:11:32;7.00;;;4.20;;
8895;SDS011;4484;48.928;10.066;2023-06-22T11:13:59;12.93;;;4.97;;
8895;SDS011;4484;48.928;10.066;2023-06-22T11:16:26;12.13;;;5.00;;
8895;SDS011;4484;48.928;10.066;2023-06-22T11:18:53;8.80;;;4.80;;
8895;SDS011;4484;48.928;10.066;2023-06-22T11:21:20;14.35;;;5.22;;
8895;SDS011;4484;48.928;10.066;2023-06-22T11:23:47;11.15;;;4.97;;
8895;SDS011;4484;48.928;10.066;2023-06-22T11:26:15;11.65;;;5.25;;
8895;SDS011;4484;48.928;10.066;2023-06-22T11:28:41;13.80;;;4.80;;
8895;SDS011;4484;48.928;10.066;2023-06-22T11:31:08;10.32;;;4.95;;
8895;SDS011;4484;48.928;10.066;2023-06-22T11:33:51;13.10;;;5.35;;
8895;SDS011;4484;48.928;10.066;2023-06-22T11:36:18;12.55;;;5.45;;
8895;SDS011;4484;48.928;10.066;2023-06-22T11:38:45;9.43;;;4.55;;
8895;SDS011;4484;48.928;10.066;2023-06-22T11:41:12;11.60;;;4.32;;
8895;SDS011;4484;48.928;10.066;2023-06-22T11:43:39;12.65;;;4.50;;
8895;SDS011;4484;48.928;10.066;2023-06-22T11:46:06;11.05;;;4.43;;
8895;SDS011;4484;48.928;10.066;2023-06-22T11:48:33;9.93;;;4.45;;
8895;SDS011;4484;48.928;10.066;2023-06-22T11:51:00;13.50;;;5.43;;
8895;SDS011;4484;48.928;10.066;2023-06-22T11:53:29;12.30;;;5.13;;
8895;SDS011;4484;48.928;10.066;2023-06-22T11:55:56;11.80;;;4.57;;
8895;SDS011;4484;48.928;10.066;2023-06-22T11:58:23;9.77;;;4.82;;
8895;SDS011;4484;48.928;10.066;2023-06-22T12:00:50;12.55;;;4.72;;
8895;SDS011;4484;48.928;10.066;2023-06-22T12:03:19;9.85;;;4.75;;
8895;SDS011;4484;48.928;10.066;2023-06-22T12:05:49;15.60;;;5.63;;
8895;SDS011;4484;48.928;10.066;2023-06-22T12:08:17;14.50;;;5.60;;
8895;SDS011;4484;48.928;10.066;2023-06-22T12:10:44;13.23;;;5.38;;
8895;SDS011;4484;48.928;10.066;2023-06-22T12:13:11;13.10;;;5.40;;
8895;SDS011;4484;48.928;10.066;2023-06-22T12:15:39;12.55;;;5.28;;
8895;SDS011;4484;48.928;10.066;2023-06-22T12:18:06;11.82;;;5.28;;
8895;SDS011;4484;48.928;10.066;2023-06-22T12:20:34;13.30;;;6.15;;
8895;SDS011;4484;48.928;10.066;2023-06-22T12:23:01;11.85;;;5.18;;
8895;SDS011;4484;48.928;10.066;2023-06-22T12:25:28;10.23;;;4.75;;
8895;SDS011;4484;48.928;10.066;2023-06-22T12:27:55;12.60;;;5.40;;
8895;SDS011;4484;48.928;10.066;2023-06-22T12:30:22;10.38;;;4.93;;
8895;SDS011;4484;48.928;10.066;2023-06-22T12:32:49;4.85;;;3.70;;
8895;SDS011;4484;48.928;10.066;2023-06-22T12:35:19;12.05;;;5.50;;
8895;SDS011;4484;48.928;10.066;2023-06-22T12:37:47;13.63;;;5.70;;
8895;SDS011;4484;48.928;10.066;2023-06-22T12:40:13;11.82;;;5.20;;
8895;SDS011;4484;48.928;10.066;2023-06-22T12:42:40;11.90;;;5.20;;
8895;SDS011;4484;48.928;10.066;2023-06-22T12:45:09;14.82;;;5.72;;
8895;SDS011;4484;48.928;10.066;2023-06-22T12:47:36;8.98;;;4.30;;
8895;SDS011;4484;48.928;10.066;2023-06-22T12:50:03;8.73;;;4.80;;
8895;SDS011;4484;48.928;10.066;2023-06-22T12:52:30;11.80;;;4.32;;
8895;SDS011;4484;48.928;10.066;2023-06-22T12:55:00;12.60;;;5.00;;
8895;SDS011;4484;48.928;10.066;2023-06-22T12:57:27;17.90;;;5.65;;
8895;SDS011;4484;48.928;10.066;2023-06-22T12:59:54;12.63;;;5.32;;
8895;SDS011;4484;48.928;10.066;2023-06-22T13:02:21;12.85;;;4.78;;
8895;SDS011;4484;48.928;10.066;2023-06-22T13:04:48;14.38;;;5.15;;
8895;SDS011;4484;48.928;10.066;2023-06-22T13:07:15;18.15;;;6.40;;
8895;SDS011;4484;48.928;10.066;2023-06-22T13:09:49;10.23;;;4.93;;
8895;SDS011;4484;48.928;10.066;2023-06-22T13:12:19;22.23;;;5.88;;
8895;SDS011;4484;48.928;10.066;2023-06-22T13:14:47;11.88;;;4.88;;
8895;SDS011;4484;48.928;10.066;2023-06-22T13:17:14;17.05;;;5.82;;
8895;SDS011;4484;48.928;10.066;2023-06-22T13:19:41;12.38;;;4.97;;
8895;SDS011;4484;48.928;10.066;2023-06-22T13:22:25;9.65;;;4.93;;
8895;SDS011;4484;48.928;10.066;2023-06-22T13:24:56;13.65;;;5.20;;
8895;SDS011;4484;48.928;10.066;2023-06-22T13:27:25;10.93;;;4.60;;
8895;SDS011;4484;48.928;10.066;2023-06-22T13:29:52;11.90;;;5.10;;
8895;SDS011;4484;48.928;10.066;2023-06-22T13:32:19;9.70;;;5.45;;
8895;SDS011;4484;48.928;10.066;2023-06-22T13:34:46;13.38;;;5.43;;
8895;SDS011;4484;48.928;10.066;2023-06-22T13:37:13;10.50;;;5.32;;
8895;SDS011;4484;48.928;10.066;2023-06-22T13:39:40;13.32;;;5.20;;
8895;SDS011;4484;48.928;10.066;2023-06-22T13:42:07;6.40;;;4.45;;
8895;SDS011;4484;48.928;10.066;2023-06-22T13:44:34;10.68;;;4.93;;
8895;SDS011;4484;48.928;10.066;2023-06-22T13:47:01;15.75;;;5.18;;
8895;SDS011;4484;48.928;10.066;2023-06-22T13:49:28;13.80;;;5.15;;
8895;SDS011;4484;48.928;10.066;2023-06-22T13:51:55;11.32;;;5.05;;
8895;SDS011;4484;48.928;10.066;2023-06-22T13:54:22;11.07;;;4.35;;
8895;SDS011;4484;48.928;10.066;2023-06-22T13:56:56;10.25;;;4.43;;
8895;SDS011;4484;48.928;10.066;2023-06-22T13:59:23;8.63;;;4.50;;
8895;SDS011;4484;48.928;10.066;2023-06-22T14:01:50;8.30;;;4.40;;
8895;SDS011;4484;48.928;10.066;2023-06-22T14:04:17;9.45;;;4.20;;
8895;SDS011;4484;48.928;10.066;2023-06-22T14:06:44;11.05;;;4.90;;
8895;SDS011;4484;48.928;10.066;2023-06-22T14:09:11;10.95;;;4.68;;
8895;SDS011;4484;48.928;10.066;2023-06-22T14:11:37;11.02;;;5.55;;
8895;SDS011;4484;48.928;10.066;2023-06-22T14:14:04;17.35;;;5.43;;
8895;SDS011;4484;48.928;10.066;2023-06-22T14:16:31;9.02;;;4.97;;
8895;SDS011;4484;48.928;10.066;2023-06-22T14:18:58;9.05;;;5.15;;
8895;SDS011;4484;48.928;10.066;2023-06-22T14:21:26;11.93;;;6.10;;
8895;SDS011;4484;48.928;10.066;2023-06-22T14:23:53;18.30;;;5.72;;
8895;SDS011;4484;48.928;10.066;2023-06-22T14:26:20;13.80;;;5.05;;
8895;SDS011;4484;48.928;10.066;2023-06-22T14:28:47;15.10;;;5.05;;
8895;SDS011;4484;48.928;10.066;2023-06-22T14:31:17;16.85;;;5.47;;
8895;SDS011;4484;48.928;10.066;2023-06-22T14:33:48;16.27;;;5.38;;
8895;SDS011;4484;48.928;10.066;2023-06-22T14:36:16;10.75;;;4.93;;
8895;SDS011;4484;48.928;10.066;2023-06-22T14:38:44;9.27;;;4.65;;
8895;SDS011;4484;48.928;10.066;2023-06-22T14:41:13;10.07;;;4.60;;
8895;SDS011;4484;48.928;10.066;2023-06-22T14:43:46;12.85;;;5.10;;
8895;SDS011;4484;48.928;10.066;2023-06-22T14:46:14;9.23;;;4.40;;
8895;SDS011;4484;48.928;10.066;2023-06-22T14:48:42;18.80;;;6.00;;
8895;SDS011;4484;48.928;10.066;2023-06-22T14:51:09;11.93;;;4.93;;
8895;SDS011;4484;48.928;10.066;2023-06-22T14:53:42;12.98;;;5.30;;
8895;SDS011;4484;48.928;10.066;2023-06-22T14:56:13;10.95;;;5.15;;
8895;SDS011;4484;48.928;10.066;2023-06-22T14:58:42;11.82;;;4.75;;
8895;SDS011;4484;48.928;10.066;2023-06-22T15:01:13;14.60;;;4.18;;
8895;SDS011;4484;48.928;10.066;2023-06-22T15:03:43;11.68;;;5.13;;
8895;SDS011;4484;48.928;10.066;2023-06-22T15:06:10;11.48;;;4.45;;
8895;SDS011;4484;48.928;10.066;2023-06-22T15:08:38;9.48;;;4.20;;
8895;SDS011;4484;48.928;10.066;2023-06-22T15:11:06;9.90;;;4.50;;